Time;durP1;ratioP1;P1;durP2;ratioP2;P2;SDS_P1;SDS_P2;PMS_P1;PMS_P2;Temp;Humidity;BMP_temperature;BMP_pressure;BME280_temperature;BME280_humidity;BME280_pressure;Samples;Min_cycle;Max_cycle;Signal;HPM_P1;HPM_P2
2024/04/07 00:00:22;;;;;;;1.63;0.63;;;;;;;-145.69;32.76;51973.06;5092621;28;20198;-78
2024/04/07 00:02:48;;;;;;;1.45;0.80;;;;;;;-145.69;31.85;51953.28;5092566;28;20591;-78
2024/04/07 00:05:15;;;;;;;1.60;1.00;;;;;;;-145.69;31.73;51941.41;5092724;28;20194;-77
2024/04/07 00:07:40;;;;;;;3.35;0.88;;;;;;;-145.69;30.65;51925.56;5092771;28;20255;-77
2024/04/07 00:10:08;;;;;;;3.28;0.80;;;;;;;-145.69;29.15;51933.47;5092794;28;20198;-77
2024/04/07 00:12:34;;;;;;;2.60;1.33;;;;;;;-145.69;29.63;51961.19;5092281;28;20198;-77
2024/04/07 00:15:02;;;;;;;4.35;0.77;;;;;;;-145.69;31.89;51945.34;5092597;28;20556;-78
2024/04/07 00:17:27;;;;;;;1.98;0.90;;;;;;;-145.69;31.05;51941.41;5092343;28;20232;-77
2024/04/07 00:19:54;;;;;;;1.85;0.77;;;;;;;-145.69;30.80;51951.28;5092702;28;20187;-77
2024/04/07 00:22:19;;;;;;;7.38;1.00;;;;;;;-145.69;31.57;51933.47;5092706;28;20240;-77
2024/04/07 00:24:46;;;;;;;5.55;0.90;;;;;;;-145.69;30.73;51913.69;5092756;28;20262;-77
2024/04/07 00:27:11;;;;;;;5.03;0.95;;;;;;;-145.69;27.79;51959.22;5092731;28;20217;-78
2024/04/07 00:29:38;;;;;;;2.45;0.90;;;;;;;-145.69;27.53;51923.56;5095810;28;20652;-78
2024/04/07 00:32:05;;;;;;;2.95;0.80;;;;;;;-145.69;27.52;51925.56;5096659;28;20226;-78
2024/04/07 00:34:32;;;;;;;2.35;0.70;;;;;;;-145.69;27.77;51895.84;5096284;28;20194;-78
2024/04/07 00:36:57;;;;;;;1.30;0.75;;;;;;;-145.69;29.29;51909.72;5096342;28;20205;-77
2024/04/07 00:39:24;;;;;;;1.05;0.70;;;;;;;-145.69;28.60;51889.91;5096374;28;20198;-77
2024/04/07 00:41:49;;;;;;;4.57;0.68;;;;;;;-145.69;27.55;51909.72;5096370;28;20209;-77
2024/04/07 00:44:15;;;;;;;2.80;0.90;;;;;;;-145.69;28.40;51945.34;5096292;28;20194;-77
2024/04/07 00:46:41;;;;;;;3.78;0.90;;;;;;;-145.69;29.24;51921.59;5095160;28;20190;-78
2024/04/07 00:49:09;;;;;;;6.90;0.80;;;;;;;-145.69;29.52;51909.72;5095864;28;20201;-78
2024/04/07 00:51:36;;;;;;;2.38;0.82;;;;;;;-145.69;28.89;51895.84;5096304;28;20229;-77
2024/04/07 00:54:03;;;;;;;11.20;0.80;;;;;;;-145.69;28.24;51919.63;5096123;28;20210;-78
2024/04/07 00:56:28;;;;;;;7.43;0.80;;;;;;;-145.69;28.00;51899.81;5095981;28;20202;-78
2024/04/07 00:58:55;;;;;;;2.38;0.90;;;;;;;-145.69;28.80;51903.78;5096072;28;20201;-78
2024/04/07 01:01:21;;;;;;;2.28;0.80;;;;;;;-145.69;27.96;51931.50;5095704;28;20710;-78
2024/04/07 01:03:47;;;;;;;1.42;0.60;;;;;;;-145.69;29.17;51909.72;5095498;28;20222;-77
2024/04/07 01:06:16;;;;;;;2.38;0.85;;;;;;;-145.69;29.10;51943.38;5095748;28;20198;-77
2024/04/07 01:08:43;;;;;;;2.40;0.70;;;;;;;-145.69;27.65;51891.88;5095614;28;20201;-79
2024/04/07 01:11:09;;;;;;;1.67;0.70;;;;;;;-145.69;28.26;51915.66;5095702;28;20576;-77
2024/04/07 01:13:35;;;;;;;5.82;0.60;;;;;;;-145.69;29.30;51903.78;5095374;28;20198;-78
2024/04/07 01:16:00;;;;;;;3.17;1.15;;;;;;;-145.69;30.26;51909.72;5094845;28;20443;-78
2024/04/07 01:18:27;;;;;;;1.30;0.60;;;;;;;-145.69;30.18;51909.72;5095177;28;20225;-77
2024/04/07 01:20:54;;;;;;;2.85;0.98;;;;;;;-145.69;30.83;51889.91;5095647;28;20610;-78
2024/04/07 01:23:22;;;;;;;2.33;0.82;;;;;;;-145.69;31.45;51937.44;5095491;28;20202;-77
2024/04/07 01:25:47;;;;;;;2.05;0.80;;;;;;;-145.69;31.67;51925.56;5095076;28;20259;-78
2024/04/07 01:28:14;;;;;;;1.63;0.90;;;;;;;-145.69;32.51;51953.28;5095462;28;20194;-78
2024/04/07 01:30:40;;;;;;;3.13;0.82;;;;;;;-145.69;32.51;51977.03;5087317;28;20230;-77
2024/04/07 01:33:07;;;;;;;3.58;0.98;;;;;;;-145.69;32.38;51933.47;5075277;28;20203;-79
2024/04/07 01:35:33;;;;;;;1.08;0.70;;;;;;;-145.69;32.73;51921.59;5075213;28;20203;-78
2024/04/07 01:38:00;;;;;;;1.90;1.00;;;;;;;-145.69;31.68;51923.56;5075179;28;20202;-78
2024/04/07 01:40:27;;;;;;;7.55;1.02;;;;;;;-145.69;30.88;51935.47;5083288;28;20190;-79
2024/04/07 01:42:53;;;;;;;5.95;1.00;;;;;;;-145.69;31.48;51917.63;5094949;28;20549;-77
2024/04/07 01:45:19;;;;;;;0.88;0.55;;;;;;;-145.69;30.50;51915.66;5095114;28;20202;-80
2024/04/07 01:47:46;;;;;;;4.00;0.70;;;;;;;-145.69;31.06;51895.84;5095170;28;20605;-77
2024/04/07 01:50:12;;;;;;;1.95;0.80;;;;;;;-145.69;31.08;51913.69;5095066;28;20190;-79
2024/04/07 01:52:38;;;;;;;7.68;0.98;;;;;;;-145.69;32.42;51945.34;5094942;28;20233;-79
2024/04/07 01:55:04;;;;;;;1.67;0.88;;;;;;;-145.69;31.36;51949.31;5094343;28;20657;-78
2024/04/07 01:57:32;;;;;;;1.70;0.80;;;;;;;-145.69;31.84;51913.69;5094358;28;20206;-78
2024/04/07 01:59:58;;;;;;;1.75;0.88;;;;;;;-145.69;32.61;51923.56;5094252;28;20462;-78
2024/04/07 02:02:24;;;;;;;4.85;0.82;;;;;;;-145.69;33.44;51953.28;5094826;28;20561;-77
2024/04/07 02:04:49;;;;;;;1.67;0.73;;;;;;;-145.69;33.49;51901.78;5094025;28;20222;-78
2024/04/07 02:07:17;;;;;;;1.73;1.00;;;;;;;-145.69;34.18;51909.72;5094542;28;20193;-78
2024/04/07 02:09:42;;;;;;;1.55;1.00;;;;;;;-145.69;34.12;51961.19;5094589;28;20286;-78
2024/04/07 02:12:09;;;;;;;2.15;1.10;;;;;;;-145.69;33.79;51937.44;5094405;28;20313;-78
2024/04/07 02:14:36;;;;;;;1.25;0.80;;;;;;;-145.69;33.98;51963.19;5094141;28;20198;-78
2024/04/07 02:17:03;;;;;;;1.67;1.00;;;;;;;-145.69;33.99;51957.25;5094098;28;20322;-78
2024/04/07 02:19:28;;;;;;;0.77;0.75;;;;;;;-145.69;34.18;51957.25;5094607;28;20198;-78
2024/04/07 02:21:55;;;;;;;2.08;1.10;;;;;;;-145.69;34.68;51945.34;5094202;28;20244;-77
2024/04/07 02:24:20;;;;;;;3.28;0.98;;;;;;;-145.69;34.46;51953.28;5094218;28;20206;-77
2024/04/07 02:26:46;;;;;;;4.05;0.93;;;;;;;-145.69;34.44;51949.31;5094123;28;20190;-78
2024/04/07 02:29:12;;;;;;;5.03;1.10;;;;;;;-145.69;34.71;51963.19;5094279;28;20625;-79
2024/04/07 02:31:40;;;;;;;1.30;0.80;;;;;;;-145.69;34.49;51925.56;5094215;28;20275;-78
2024/04/07 02:34:06;;;;;;;7.07;1.10;;;;;;;-145.69;34.45;51941.41;5094347;28;20557;-78
2024/04/07 02:36:34;;;;;;;1.30;1.00;;;;;;;-145.69;35.00;51953.28;5093759;28;20194;-78
2024/04/07 02:38:59;;;;;;;4.70;1.10;;;;;;;-145.69;33.97;51937.44;5093754;28;20228;-78
2024/04/07 02:41:26;;;;;;;1.73;1.10;;;;;;;-145.69;34.77;51957.25;5093812;28;20202;-78
2024/04/07 02:43:51;;;;;;;2.63;1.02;;;;;;;-145.69;34.88;51947.34;5093775;28;20202;-78
2024/04/07 02:49:03;;;;;;;3.38;1.08;;;;;;;-145.69;34.72;51975.06;5093901;28;20622;-78
2024/04/07 02:51:30;;;;;;;4.13;1.17;;;;;;;-145.69;34.34;51953.28;5093411;28;20228;-79
2024/04/07 02:53:56;;;;;;;1.98;1.08;;;;;;;-145.69;34.75;51953.28;5093724;28;20202;-79
2024/04/07 02:56:23;;;;;;;1.67;0.98;;;;;;;-145.69;34.52;51953.28;5093384;28;20199;-78
2024/04/07 02:58:48;;;;;;;3.42;1.02;;;;;;;-145.69;34.93;51933.47;5093890;28;20292;-78
2024/04/07 03:01:14;;;;;;;2.83;0.80;;;;;;;-145.69;34.89;51949.31;5093461;28;20293;-77
2024/04/07 03:03:40;;;;;;;1.10;0.85;;;;;;;-145.69;34.56;51973.06;5093794;28;20206;-78
2024/04/07 03:06:09;;;;;;;3.80;0.90;;;;;;;-145.69;35.37;51945.34;5093392;28;20205;-78
2024/04/07 03:08:35;;;;;;;4.30;1.00;;;;;;;-145.69;35.80;51963.19;5110647;28;20561;-78
2024/04/07 03:11:03;;;;;;;4.45;0.95;;;;;;;-145.69;35.09;51967.13;5113635;28;20233;-79
2024/04/07 03:13:29;;;;;;;2.42;1.17;;;;;;;-145.69;35.45;51975.06;5113918;28;20230;-79
2024/04/07 03:15:55;;;;;;;3.30;1.23;;;;;;;-145.69;35.30;51941.41;5113866;28;20201;-78
2024/04/07 03:18:21;;;;;;;2.28;1.15;;;;;;;-145.69;35.59;51977.03;5097627;28;20229;-78
2024/04/07 03:20:49;;;;;;;3.40;1.15;;;;;;;-145.69;35.98;51945.34;5093325;28;20208;-78
2024/04/07 03:23:15;;;;;;;2.90;0.98;;;;;;;-145.69;35.62;51975.06;5093183;28;20255;-78
2024/04/07 03:25:42;;;;;;;1.35;1.05;;;;;;;-145.69;35.24;51957.25;5082826;28;20195;-78
2024/04/07 03:28:08;;;;;;;2.30;0.95;;;;;;;-145.69;34.95;51965.16;5084483;28;20194;-78
2024/04/07 03:30:36;;;;;;;1.98;1.00;;;;;;;-145.69;35.13;51955.25;5093176;28;20198;-78
2024/04/07 03:33:01;;;;;;;3.03;0.95;;;;;;;-145.69;34.65;51975.06;5093048;28;20210;-77
2024/04/07 03:35:28;;;;;;;4.40;0.90;;;;;;;-145.69;35.16;51969.13;5093064;28;20202;-78
2024/04/07 03:37:54;;;;;;;1.35;0.88;;;;;;;-145.69;35.73;51953.28;5094760;28;20190;-77
2024/04/07 03:40:22;;;;;;;3.83;1.00;;;;;;;-145.69;35.17;51959.22;5092975;28;20195;-77
2024/04/07 03:42:50;;;;;;;2.95;1.10;;;;;;;-145.69;35.26;51967.13;5093029;28;20194;-77
2024/04/07 03:45:16;;;;;;;2.53;0.82;;;;;;;-145.69;35.33;51990.91;5093031;28;20233;-77
2024/04/07 03:47:43;;;;;;;2.72;0.80;;;;;;;-145.69;35.45;51982.97;5093043;28;20202;-77
2024/04/07 03:50:10;;;;;;;2.60;1.10;;;;;;;-145.69;35.25;51957.25;5092755;28;20204;-77
2024/04/07 03:52:35;;;;;;;2.35;1.00;;;;;;;-145.69;35.03;51957.25;5094915;28;20233;-77
2024/04/07 03:55:02;;;;;;;8.40;1.45;;;;;;;-145.69;34.65;52004.75;5096883;28;20229;-77
2024/04/07 03:57:29;;;;;;;4.53;1.10;;;;;;;-145.69;34.72;51955.25;5092835;28;20194;-78
2024/04/07 03:59:55;;;;;;;5.20;1.10;;;;;;;-145.69;34.79;51957.25;5093129;28;20194;-78
2024/04/07 04:02:22;;;;;;;3.38;1.25;;;;;;;-145.69;34.45;51949.31;5092676;28;20202;-77
2024/04/07 04:04:56;;;;;;;2.67;1.13;;;;;;;-145.69;38.29;51969.13;5096419;28;20440;-77
2024/04/07 04:07:21;;;;;;;3.45;1.20;;;;;;;-145.69;38.15;51973.06;5096460;28;20188;-77
2024/04/07 04:09:51;;;;;;;2.55;1.27;;;;;;;-145.69;35.84;51988.91;5096681;28;20198;-76
2024/04/07 04:12:16;;;;;;;4.93;1.13;;;;;;;-145.69;36.24;51969.13;5096614;28;20221;-77
2024/04/07 04:14:44;;;;;;;5.72;1.90;;;;;;;-145.69;37.22;51955.25;5096625;28;20200;-77
2024/04/07 04:17:09;;;;;;;4.00;1.23;;;;;;;-145.69;37.11;51982.97;5096735;28;20226;-77
2024/04/07 04:19:36;;;;;;;6.40;1.20;;;;;;;-145.69;35.81;51982.97;5096770;28;20205;-77
2024/04/07 04:22:01;;;;;;;3.35;0.98;;;;;;;-145.69;35.88;51965.16;5096829;28;20648;-78
2024/04/07 04:24:28;;;;;;;2.47;0.95;;;;;;;-145.69;35.61;52008.72;5096783;28;20202;-77
2024/04/07 04:26:54;;;;;;;3.13;1.10;;;;;;;-145.69;35.04;51982.97;5096558;28;20289;-76
2024/04/07 04:29:21;;;;;;;4.43;1.30;;;;;;;-145.69;34.93;51971.09;5096480;28;20380;-77
2024/04/07 04:31:48;;;;;;;6.10;1.00;;;;;;;-145.69;35.58;51992.88;5096526;28;20260;-78
2024/04/07 04:34:14;;;;;;;6.57;1.13;;;;;;;-145.69;35.57;51988.91;5096297;28;20202;-79
2024/04/07 04:36:40;;;;;;;3.72;1.05;;;;;;;-145.69;35.79;51967.13;5096539;28;20202;-78
2024/04/07 04:39:07;;;;;;;2.45;1.02;;;;;;;-145.69;35.96;51984.97;5095657;28;20194;-78
2024/04/07 04:41:33;;;;;;;2.90;1.10;;;;;;;-145.69;35.70;51973.06;5095901;28;20263;-77
2024/04/07 04:43:59;;;;;;;5.38;1.55;;;;;;;-145.69;35.83;51981.00;5096185;28;20657;-77
2024/04/07 04:46:26;;;;;;;6.10;1.20;;;;;;;-145.69;35.68;51994.88;5096262;28;20205;-77
2024/04/07 04:48:53;;;;;;;4.78;1.00;;;;;;;-145.69;35.36;51975.06;5096076;28;20721;-77
2024/04/07 04:51:19;;;;;;;6.10;1.00;;;;;;;-145.69;35.38;51961.19;5096153;28;20234;-77
2024/04/07 04:53:45;;;;;;;15.70;1.33;;;;;;;-145.69;35.19;51977.03;5095962;28;20217;-78
2024/04/07 04:56:11;;;;;;;7.32;1.60;;;;;;;-145.69;35.65;51961.19;5096072;28;20198;-77
2024/04/07 04:58:37;;;;;;;4.10;1.20;;;;;;;-145.69;35.96;52008.72;5095760;28;20201;-78
2024/04/07 05:01:09;;;;;;;8.88;1.48;;;;;;;-145.69;35.87;51969.13;5096030;28;20671;-77
2024/04/07 05:03:37;;;;;;;7.57;1.38;;;;;;;-145.69;36.15;51963.19;5096052;28;20271;-77
2024/04/07 05:06:07;;;;;;;5.28;1.48;;;;;;;-145.69;35.69;52008.72;5095964;28;20901;-78
2024/04/07 05:08:33;;;;;;;5.53;1.27;;;;;;;-145.69;36.32;52012.69;5095315;28;20247;-79
2024/04/07 05:11:03;;;;;;;4.07;1.38;;;;;;;-145.69;35.80;51986.94;5095671;28;20213;-77
2024/04/07 05:13:29;;;;;;;8.82;1.48;;;;;;;-145.69;36.98;51967.13;5095517;28;20194;-79
2024/04/07 05:15:55;;;;;;;7.18;1.42;;;;;;;-145.69;36.52;51959.22;5094322;28;20210;-79
2024/04/07 05:18:21;;;;;;;10.15;1.70;;;;;;;-145.69;36.73;51965.16;5095470;28;20230;-79
2024/04/07 05:20:46;;;;;;;10.50;1.20;;;;;;;-145.69;36.14;52000.81;5095704;28;20538;-77
2024/04/07 05:23:14;;;;;;;6.03;1.00;;;;;;;-145.69;35.83;51981.00;5093142;28;20194;-78
2024/04/07 05:25:40;;;;;;;6.22;1.20;;;;;;;-145.69;35.80;51992.88;5094208;28;20198;-77
2024/04/07 05:28:06;;;;;;;12.52;1.52;;;;;;;-145.69;34.17;51969.13;5095349;28;20197;-78
2024/04/07 05:30:32;;;;;;;7.63;1.40;;;;;;;-145.69;35.16;51969.13;5095492;28;20202;-77
2024/04/07 05:32:58;;;;;;;11.20;1.58;;;;;;;-145.69;33.48;51961.19;5095387;28;20232;-78
2024/04/07 05:35:23;;;;;;;7.68;1.50;;;;;;;-145.69;33.71;51992.88;5095444;28;20198;-77
2024/04/07 05:37:51;;;;;;;9.32;1.77;;;;;;;-145.69;32.97;51957.25;5094652;28;20194;-77
2024/04/07 05:40:17;;;;;;;13.15;1.50;;;;;;;-145.69;32.30;51963.19;5094957;28;20284;-77
2024/04/07 05:42:44;;;;;;;7.47;1.85;;;;;;;-145.69;32.55;51933.47;5095182;28;20197;-78
2024/04/07 05:45:09;;;;;;;8.48;1.60;;;;;;;-145.69;32.69;51941.41;5094845;28;20908;-77
2024/04/07 05:47:36;;;;;;;6.97;1.67;;;;;;;-145.69;31.89;51925.56;5094992;28;20190;-78
2024/04/07 05:50:01;;;;;;;8.50;1.65;;;;;;;-145.69;32.03;51921.59;5095156;28;20213;-79
2024/04/07 05:52:27;;;;;;;8.85;1.52;;;;;;;-145.69;31.67;51943.38;5094705;28;20572;-79
2024/04/07 05:54:53;;;;;;;8.98;1.48;;;;;;;-145.69;31.64;51921.59;5094994;28;20247;-79
2024/04/07 05:57:21;;;;;;;7.50;1.48;;;;;;;-145.69;32.01;51897.84;5094753;28;20194;-79
2024/04/07 05:59:46;;;;;;;8.82;1.58;;;;;;;-145.69;31.76;51921.59;5094469;28;20199;-79
2024/04/07 06:02:13;;;;;;;10.73;2.03;;;;;;;-145.69;31.71;51905.75;5094771;28;20198;-78
2024/04/07 06:04:39;;;;;;;12.00;1.85;;;;;;;-145.69;31.88;51901.78;5094767;28;20198;-78
2024/04/07 06:07:06;;;;;;;15.75;1.90;;;;;;;-145.69;31.08;51925.56;5094455;28;20198;-78
2024/04/07 06:09:31;;;;;;;13.80;1.80;;;;;;;-145.69;31.07;51885.94;5094367;28;20201;-77
2024/04/07 06:11:57;;;;;;;12.93;1.80;;;;;;;-145.69;31.30;51923.56;5094420;28;20680;-78
2024/04/07 06:14:24;;;;;;;5.88;1.80;;;;;;;-145.69;31.68;51909.72;5094830;28;20205;-78
2024/04/07 06:16:51;;;;;;;17.63;1.88;;;;;;;-145.69;31.06;51913.69;5093801;28;20696;-78
2024/04/07 06:19:16;;;;;;;11.90;1.88;;;;;;;-145.69;31.30;51889.91;5094751;28;20208;-78
2024/04/07 06:21:42;;;;;;;13.48;1.73;;;;;;;-145.69;31.27;51905.75;5094260;28;20202;-78
2024/04/07 06:24:08;;;;;;;10.15;1.45;;;;;;;-145.69;31.59;51893.88;5094422;28;20561;-78
2024/04/07 06:26:35;;;;;;;11.30;1.90;;;;;;;-145.69;31.94;51917.63;5093385;28;20194;-78
2024/04/07 06:29:00;;;;;;;17.63;2.13;;;;;;;-145.69;31.92;51907.72;5094642;28;20198;-78
2024/04/07 06:31:28;;;;;;;9.20;1.67;;;;;;;-145.69;31.94;51893.88;5094094;28;20206;-78
2024/04/07 06:33:53;;;;;;;9.90;1.45;;;;;;;-145.69;31.64;51893.88;5094145;28;20648;-78
2024/04/07 06:36:20;;;;;;;6.10;1.23;;;;;;;-145.69;31.84;51887.94;5094099;28;20202;-78
2024/04/07 06:38:45;;;;;;;9.63;1.45;;;;;;;-145.69;32.27;51883.97;5093646;28;20552;-78
2024/04/07 06:41:12;;;;;;;11.43;1.90;;;;;;;-145.69;32.17;51901.78;5093871;28;20202;-78
2024/04/07 06:43:38;;;;;;;9.73;1.83;;;;;;;-145.69;32.19;51893.88;5093852;28;20213;-78
2024/04/07 06:46:05;;;;;;;9.85;1.92;;;;;;;-145.69;31.58;51880.00;5093516;28;20194;-78
2024/04/07 06:48:31;;;;;;;15.05;1.73;;;;;;;-145.69;31.42;51891.88;5093900;28;20198;-78
2024/04/07 06:50:58;;;;;;;13.00;1.75;;;;;;;-145.69;31.89;51870.13;5093353;28;20194;-78
2024/04/07 06:53:24;;;;;;;20.92;1.95;;;;;;;-145.69;31.42;51876.06;5093622;28;20712;-78
2024/04/07 06:55:50;;;;;;;13.20;1.58;;;;;;;-145.69;30.86;51858.22;5093647;28;20202;-79
2024/04/07 06:58:16;;;;;;;14.18;1.65;;;;;;;-145.69;30.57;51907.72;5093964;28;20218;-79
2024/04/07 07:00:42;;;;;;;14.35;1.77;;;;;;;-145.69;31.17;51887.94;5093597;28;20202;-79
2024/04/07 07:03:08;;;;;;;9.77;1.67;;;;;;;-145.69;31.17;51907.72;5093758;28;20603;-78
2024/04/07 07:05:35;;;;;;;10.63;1.80;;;;;;;-145.69;31.25;51874.06;5093758;28;20193;-79
2024/04/07 07:08:01;;;;;;;7.57;1.63;;;;;;;-145.69;32.30;51893.88;5093092;28;20200;-78
2024/04/07 07:10:27;;;;;;;9.68;1.80;;;;;;;-145.69;31.38;51874.06;5092275;28;20202;-79
2024/04/07 07:12:53;;;;;;;11.48;1.35;;;;;;;-145.69;31.43;51866.16;5093493;28;20247;-79
2024/04/07 07:15:19;;;;;;;11.27;1.73;;;;;;;-145.69;31.34;51880.00;5093423;28;20201;-78
2024/04/07 07:17:45;;;;;;;15.15;2.33;;;;;;;-145.69;31.34;51854.28;5089420;28;20221;-78
2024/04/07 07:20:12;;;;;;;17.95;2.42;;;;;;;-145.69;30.67;51866.16;5092772;28;20194;-79
2024/04/07 07:22:39;;;;;;;9.82;1.75;;;;;;;-145.69;31.75;51880.00;5093200;28;20326;-78
2024/04/07 07:25:06;;;;;;;10.25;1.92;;;;;;;-145.69;31.01;51882.00;5093116;28;20206;-78
2024/04/07 07:27:32;;;;;;;11.80;1.45;;;;;;;-145.69;30.96;51874.06;5093590;28;20198;-78
2024/04/07 07:29:59;;;;;;;11.70;2.00;;;;;;;-145.69;31.16;51870.13;5093262;28;20198;-78
2024/04/07 07:32:24;;;;;;;11.52;1.38;;;;;;;-145.69;31.17;51874.06;5093159;28;20222;-79
2024/04/07 07:34:51;;;;;;;9.00;1.80;;;;;;;-145.69;31.35;51868.13;5093138;28;20194;-78
2024/04/07 07:37:16;;;;;;;15.90;1.90;;;;;;;-145.69;31.22;51874.06;5092963;28;20288;-77
2024/04/07 07:39:44;;;;;;;12.90;1.70;;;;;;;-145.69;31.93;51868.13;5092256;28;20309;-78
2024/04/07 07:42:10;;;;;;;9.18;1.83;;;;;;;-145.69;32.15;51848.34;5092617;28;20206;-77
2024/04/07 07:44:37;;;;;;;13.38;1.50;;;;;;;-145.69;32.28;51830.50;5092984;28;20205;-78
2024/04/07 07:47:03;;;;;;;5.57;1.60;;;;;;;-145.69;31.47;51820.59;5093047;28;20202;-78
2024/04/07 07:49:29;;;;;;;14.60;1.90;;;;;;;-145.69;31.36;51876.06;5092974;28;20216;-78
2024/04/07 07:51:55;;;;;;;11.27;1.63;;;;;;;-145.69;30.87;51846.34;5092606;28;20221;-78
2024/04/07 07:54:21;;;;;;;7.00;1.20;;;;;;;-145.69;30.63;51846.34;5092836;28;20607;-78
2024/04/07 07:56:48;;;;;;;12.02;1.40;;;;;;;-145.69;30.94;51826.56;5093002;28;20263;-78
2024/04/07 07:59:14;;;;;;;9.38;1.63;;;;;;;-145.69;30.80;51836.44;5092983;28;20198;-78
2024/04/07 08:01:40;;;;;;;10.25;1.42;;;;;;;-145.69;30.24;51862.19;5092766;28;20198;-78
2024/04/07 08:04:06;;;;;;;14.32;1.75;;;;;;;-145.69;30.21;51806.75;5092769;28;20530;-77
2024/04/07 08:06:32;;;;;;;12.15;1.33;;;;;;;-145.69;30.25;51870.13;5092499;28;20210;-78
2024/04/07 08:08:58;;;;;;;6.57;1.40;;;;;;;-145.69;30.34;51842.38;5092344;28;20197;-77
2024/04/07 08:11:24;;;;;;;12.13;1.63;;;;;;;-145.69;30.53;51816.66;5092923;28;20198;-77
2024/04/07 08:13:54;;;;;;;10.57;1.48;;;;;;;-145.69;30.54;51816.66;5092640;28;20700;-77
2024/04/07 08:16:21;;;;;;;8.57;1.55;;;;;;;-145.69;30.47;51826.56;5092593;28;20549;-77
2024/04/07 08:18:47;;;;;;;7.00;1.77;;;;;;;-145.69;30.65;51842.38;5092652;28;20209;-78
2024/04/07 08:21:14;;;;;;;8.00;1.30;;;;;;;-145.69;30.78;51838.44;5092640;28;20205;-78
2024/04/07 08:23:40;;;;;;;9.90;1.83;;;;;;;-145.69;29.81;51846.34;5092859;28;20206;-77
2024/04/07 08:26:06;;;;;;;13.05;1.83;;;;;;;-145.69;30.23;51826.56;5092531;28;20433;-77
2024/04/07 08:28:33;;;;;;;7.03;1.40;;;;;;;-145.69;29.98;51824.56;5092722;28;20225;-78
2024/04/07 08:31:01;;;;;;;11.35;1.75;;;;;;;-145.69;30.23;51784.97;5092619;28;20202;-78
2024/04/07 08:33:26;;;;;;;12.90;1.60;;;;;;;-145.69;29.93;51826.56;5092308;28;20257;-77
2024/04/07 08:35:53;;;;;;;10.55;1.30;;;;;;;-145.69;30.08;51826.56;5092471;28;20631;-78
2024/04/07 08:38:18;;;;;;;9.75;1.80;;;;;;;-145.69;29.99;51810.72;5092766;28;20209;-78
2024/04/07 08:40:46;;;;;;;9.13;1.42;;;;;;;-145.69;29.66;51848.34;5092197;28;20553;-78
2024/04/07 08:43:13;;;;;;;8.10;1.77;;;;;;;-145.69;29.78;51802.78;5092559;28;20194;-77
2024/04/07 08:45:40;;;;;;;10.82;1.38;;;;;;;-145.69;30.23;51810.72;5092052;28;20210;-79
2024/04/07 08:48:11;;;;;;;13.13;1.65;;;;;;;-145.69;30.16;51775.06;5092279;28;20733;-78
2024/04/07 08:50:37;;;;;;;15.05;1.75;;;;;;;-145.69;29.71;51824.56;5095286;28;20211;-78
2024/04/07 08:53:05;;;;;;;11.27;2.17;;;;;;;-145.69;30.78;51810.72;5096195;28;20230;-78
2024/04/07 08:55:31;;;;;;;8.45;1.58;;;;;;;-145.69;30.53;51786.94;5095390;28;20205;-77
2024/04/07 08:57:59;;;;;;;15.25;1.90;;;;;;;-145.69;30.57;51810.72;5096242;28;20616;-78
2024/04/07 09:00:26;;;;;;;12.30;1.77;;;;;;;-145.69;30.09;51806.75;5096064;28;20236;-77
2024/04/07 09:02:55;;;;;;;16.80;1.92;;;;;;;-145.69;30.33;51830.50;5095645;28;20205;-77
2024/04/07 09:05:23;;;;;;;16.90;2.05;;;;;;;-145.69;30.64;51834.47;5096237;28;20202;-77
2024/04/07 09:07:49;;;;;;;12.27;1.50;;;;;;;-145.69;30.20;51822.59;5095965;28;20224;-78
2024/04/07 09:10:16;;;;;;;11.80;1.80;;;;;;;-145.69;30.37;51834.47;5095570;28;20194;-78
2024/04/07 09:12:41;;;;;;;8.07;1.40;;;;;;;-145.69;30.54;51826.56;5095243;28;20688;-77
2024/04/07 09:15:09;;;;;;;11.40;2.00;;;;;;;-145.69;30.66;51796.84;5095357;28;20231;-77
2024/04/07 09:17:37;;;;;;;7.22;1.75;;;;;;;-145.69;30.72;51818.63;5076692;28;20222;-77
2024/04/07 09:20:06;;;;;;;13.57;1.92;;;;;;;-145.69;30.26;51810.72;5075334;28;20649;-77
2024/04/07 09:22:33;;;;;;;11.15;1.63;;;;;;;-145.69;30.32;51779.03;5075551;28;20206;-77
2024/04/07 09:25:02;;;;;;;16.33;1.80;;;;;;;-145.69;30.25;51783.00;5095074;28;20206;-78
2024/04/07 09:27:27;;;;;;;13.25;1.95;;;;;;;-145.69;29.70;51806.75;5095498;28;20229;-77
2024/04/07 09:29:54;;;;;;;8.15;1.33;;;;;;;-145.69;29.54;51808.72;5095400;28;20801;-75
2024/04/07 09:32:21;;;;;;;9.73;1.38;;;;;;;-145.69;29.56;51773.09;5095500;28;20624;-77
2024/04/07 09:34:50;;;;;;;10.30;1.63;;;;;;;-145.69;29.90;51806.75;5095171;28;20553;-78
2024/04/07 09:37:16;;;;;;;18.75;2.25;;;;;;;-145.69;29.64;51798.81;5074956;28;20199;-77
2024/04/07 09:39:44;;;;;;;15.25;2.13;;;;;;;-145.69;29.52;51796.84;5094508;28;20205;-78
2024/04/07 09:42:15;;;;;;;15.38;1.80;;;;;;;-145.69;29.24;51788.94;5095230;28;20288;-77
2024/04/07 09:44:44;;;;;;;13.38;1.83;;;;;;;-145.69;29.48;51790.91;5095115;28;20209;-78
2024/04/07 09:47:22;;;;;;;5.82;1.38;;;;;;;-145.69;30.02;51824.56;5095387;28;20198;-77
2024/04/07 09:50:24;;;;;;;11.15;1.77;;;;;;;-145.69;29.65;51806.75;5095452;28;20610;-77
2024/04/07 09:53:03;;;;;;;7.03;1.50;;;;;;;-145.69;30.73;51781.00;5095149;28;20221;-77
2024/04/07 10:01:24;;;;;;;9.95;1.75;;;;;;;-145.69;30.08;51786.94;5093688;28;20328;-77
2024/04/07 10:04:14;;;;;;;14.38;1.80;;;;;;;-145.69;30.29;51818.63;5095305;28;20198;-77
2024/04/07 10:09:42;;;;;;;7.78;1.83;;;;;;;-145.69;29.25;51788.94;5076120;28;20198;-77
2024/04/07 10:12:45;;;;;;;10.35;1.63;;;;;;;-145.69;29.67;51800.81;5094581;28;20645;-78
2024/04/07 10:15:34;;;;;;;8.85;1.95;;;;;;;-145.69;29.25;51790.91;5085673;28;20197;-77
2024/04/07 10:18:33;;;;;;;11.95;1.80;;;;;;;-145.69;30.03;51779.03;5094628;28;20236;-77
2024/04/07 10:27:50;;;;;;;13.30;1.88;;;;;;;-145.69;29.63;51779.03;5078928;28;20197;-78
2024/04/07 10:30:37;;;;;;;16.10;1.90;;;;;;;-145.69;29.00;51747.34;5012253;28;20201;-77
2024/04/07 10:33:25;;;;;;;10.63;1.58;;;;;;;-145.69;28.76;51737.44;5092037;28;20218;-78
2024/04/07 10:36:26;;;;;;;11.50;1.65;;;;;;;-145.69;28.63;51745.38;5094353;28;20653;-77
2024/04/07 10:38:56;;;;;;;7.25;1.20;;;;;;;-145.69;28.79;51723.59;5074606;28;20194;-78
2024/04/07 10:41:24;;;;;;;10.90;1.73;;;;;;;-145.69;28.18;51739.44;5094351;28;20224;-78
2024/04/07 10:43:50;;;;;;;17.27;1.83;;;;;;;-145.69;28.27;51753.28;5093528;28;20221;-77
2024/04/07 10:46:19;;;;;;;9.48;1.48;;;;;;;-145.69;28.55;51767.16;5083097;28;20650;-78
2024/04/07 10:48:45;;;;;;;8.18;1.60;;;;;;;-145.69;28.55;51741.41;5089591;28;20198;-78
2024/04/07 10:51:15;;;;;;;14.70;1.88;;;;;;;-145.69;28.11;51755.25;5087347;28;20204;-78
2024/04/07 10:53:41;;;;;;;6.22;1.52;;;;;;;-145.69;28.37;51735.47;5086784;28;20257;-78
2024/04/07 10:56:08;;;;;;;11.38;1.95;;;;;;;-145.69;28.46;51743.38;5087806;28;20271;-78
2024/04/07 10:58:34;;;;;;;8.82;2.65;;;;;;;-145.69;28.17;51747.34;5088985;28;20675;-77
2024/04/07 11:01:00;;;;;;;9.80;1.77;;;;;;;-145.69;28.19;51755.25;5086467;28;20293;-78
2024/04/07 11:03:28;;;;;;;8.65;1.65;;;;;;;-145.69;28.50;51767.16;5081139;28;20201;-78
2024/04/07 11:05:55;;;;;;;12.50;2.20;;;;;;;-145.69;28.73;51739.44;5078375;28;20418;-77
2024/04/07 11:08:22;;;;;;;12.70;2.17;;;;;;;-145.69;29.33;51723.59;5085567;28;20263;-77
2024/04/07 11:10:54;;;;;;;6.25;1.50;;;;;;;-145.69;28.90;51751.31;5087584;28;20202;-77
2024/04/07 11:13:21;;;;;;;8.52;1.58;;;;;;;-145.69;28.81;51739.44;5088037;28;20228;-77
2024/04/07 11:15:50;;;;;;;9.63;1.63;;;;;;;-145.69;28.42;51745.38;5088346;28;20187;-76
2024/04/07 11:18:17;;;;;;;9.02;1.52;;;;;;;-145.69;28.66;51737.44;5077160;28;21908;-77
2024/04/07 11:20:45;;;;;;;14.77;1.85;;;;;;;-145.69;29.01;51735.47;5078843;28;20275;-78
2024/04/07 11:23:12;;;;;;;13.35;1.83;;;;;;;-145.69;29.17;51733.50;5085768;28;20265;-78
2024/04/07 11:25:41;;;;;;;14.57;2.60;;;;;;;-145.69;28.78;51735.47;5089637;28;20672;-78
2024/04/07 11:28:08;;;;;;;9.35;1.77;;;;;;;-145.69;28.45;51719.63;5086742;28;20191;-78
2024/04/07 11:30:35;;;;;;;13.13;1.92;;;;;;;-145.69;28.68;51723.59;5074516;28;20203;-78
2024/04/07 11:33:03;;;;;;;12.57;1.83;;;;;;;-145.69;29.75;51765.16;5084331;28;20683;-78